createdAt,value
2018-04-27T00:01:53.823Z,101175.84
2018-04-27T00:04:22.954Z,101176.80
2018-04-27T00:06:51.309Z,101172.14
2018-04-27T00:09:19.678Z,101171.02
2018-04-27T00:11:48.045Z,101165.52
2018-04-27T00:14:16.408Z,101166.30
2018-04-27T00:16:44.800Z,101172.83
2018-04-27T00:19:13.159Z,101167.59
2018-04-27T00:21:41.539Z,101167.62
2018-04-27T00:24:09.928Z,101165.61
2018-04-27T00:26:38.364Z,101167.00
2018-04-27T00:29:06.749Z,101166.23
2018-04-27T00:31:35.122Z,101154.78
2018-04-27T00:34:03.546Z,101161.50
2018-04-27T00:36:31.908Z,101158.84
2018-04-27T00:39:01.056Z,101155.09
2018-04-27T00:41:29.429Z,101155.13
2018-04-27T00:43:57.811Z,101142.96
2018-04-27T00:46:26.186Z,101144.98
2018-04-27T00:48:54.572Z,101142.94
2018-04-27T00:51:22.952Z,101139.27
2018-04-27T00:53:51.309Z,101142.06
2018-04-27T00:56:20.462Z,101136.50
2018-04-27T00:58:48.826Z,101134.27
2018-04-27T01:01:17.201Z,101139.89
2018-04-27T01:03:45.585Z,101137.03
2018-04-27T01:06:14.055Z,101140.61
2018-04-27T01:08:42.422Z,101131.79
2018-04-27T01:11:11.548Z,101134.69
2018-04-27T01:13:39.933Z,101128.52
2018-04-27T01:16:08.314Z,101126.33
2018-04-27T01:18:36.691Z,101128.00
2018-04-27T01:21:05.055Z,101124.16
2018-04-27T01:23:34.203Z,101125.92
2018-04-27T01:26:02.562Z,101117.56
2018-04-27T01:28:30.949Z,101121.75
2018-04-27T01:30:59.341Z,101123.17
2018-04-27T01:33:27.986Z,101122.23
2018-04-27T01:35:57.142Z,101117.95
2018-04-27T01:38:25.507Z,101121.13
2018-04-27T01:40:53.898Z,101112.44
2018-04-27T01:43:22.274Z,101114.64
2018-04-27T01:45:50.698Z,101118.66
2018-04-27T01:48:19.076Z,101114.58
2018-04-27T01:50:47.444Z,101108.20
2018-04-27T01:53:15.839Z,101112.50
2018-04-27T01:55:44.224Z,101106.69
2018-04-27T01:58:12.613Z,101104.29
2018-04-27T02:00:41.015Z,101105.45
2018-04-27T02:03:10.153Z,101101.66
2018-04-27T02:05:38.529Z,101107.44
2018-04-27T02:08:06.969Z,101100.52
2018-04-27T02:10:35.393Z,101094.00
2018-04-27T02:13:03.778Z,101095.02
2018-04-27T02:15:32.157Z,101088.83
2018-04-27T02:18:00.518Z,101088.52
2018-04-27T02:20:29.655Z,101088.63
2018-04-27T02:22:58.045Z,101089.33
2018-04-27T02:25:26.410Z,101083.51
2018-04-27T02:27:54.785Z,101086.41
2018-04-27T02:30:23.151Z,101084.56
2018-04-27T02:32:52.427Z,101085.93
2018-04-27T02:35:20.800Z,101077.14
2018-04-27T02:37:49.222Z,101080.06
2018-04-27T02:40:18.354Z,101081.53
2018-04-27T02:42:46.825Z,101083.72
2018-04-27T02:45:15.264Z,101080.30
2018-04-27T02:47:43.645Z,101077.53
2018-04-27T02:50:12.053Z,101075.72
2018-04-27T02:52:41.216Z,101067.14
2018-04-27T02:55:09.592Z,101066.50
2018-04-27T02:57:37.963Z,101071.88
2018-04-27T03:00:06.330Z,101068.55
2018-04-27T03:02:34.693Z,101065.39
2018-04-27T03:05:03.066Z,101065.03
2018-04-27T03:07:32.197Z,101059.39
2018-04-27T03:10:00.587Z,101060.24
2018-04-27T03:12:28.959Z,101063.44
2018-04-27T03:14:57.331Z,101058.44
2018-04-27T03:17:25.725Z,101055.97
2018-04-27T03:19:54.142Z,101055.84
2018-04-27T03:22:22.515Z,101047.63
2018-04-27T03:24:50.880Z,101042.83
2018-04-27T03:27:19.257Z,101046.54
2018-04-27T03:29:47.685Z,101038.63
2018-04-27T03:32:16.073Z,101045.79
2018-04-27T03:34:44.517Z,101038.47
2018-04-27T03:37:12.914Z,101032.23
2018-04-27T03:39:42.044Z,101025.03
2018-04-27T03:42:10.403Z,101027.52
2018-04-27T03:44:39.531Z,101021.45
2018-04-27T03:47:07.902Z,101015.44
2018-04-27T03:49:36.300Z,101015.88
2018-04-27T03:52:05.436Z,101019.85
2018-04-27T03:54:33.826Z,101013.77
2018-04-27T03:57:02.214Z,101010.91
2018-04-27T03:59:48.468Z,101005.71
2018-04-27T04:02:35.139Z,101004.58
2018-04-27T04:05:18.194Z,100996.72
2018-04-27T04:07:46.568Z,100998.11
2018-04-27T04:10:15.796Z,100999.03
2018-04-27T04:12:44.165Z,100994.44
2018-04-27T04:15:12.557Z,101000.17
2018-04-27T04:17:41.002Z,101001.44
2018-04-27T04:20:09.397Z,100996.98
2018-04-27T04:22:38.560Z,100984.84
2018-04-27T04:25:06.954Z,100987.94
2018-04-27T04:27:35.327Z,100986.55
2018-04-27T04:30:03.691Z,100982.56
2018-04-27T04:32:32.057Z,100981.91
2018-04-27T04:35:00.434Z,100980.28
2018-04-27T04:37:28.842Z,100982.94
2018-04-27T04:39:57.213Z,100975.38
2018-04-27T04:42:25.586Z,100967.31
2018-04-27T04:44:53.954Z,100969.25
2018-04-27T04:47:22.337Z,100967.28
2018-04-27T04:49:51.481Z,100956.13
2018-04-27T04:52:19.900Z,100964.37
2018-04-27T04:54:49.148Z,100960.50
2018-04-27T04:57:17.542Z,100959.55
2018-04-27T04:59:46.025Z,100963.52
2018-04-27T05:02:14.393Z,100966.09
2018-04-27T05:04:42.793Z,100964.30
2018-04-27T05:07:11.153Z,100964.91
2018-04-27T05:09:40.357Z,100964.34
2018-04-27T05:12:08.736Z,100962.16
2018-04-27T05:14:37.151Z,100962.09
2018-04-27T05:17:05.517Z,100958.67
2018-04-27T05:19:33.882Z,100957.70
2018-04-27T05:22:02.370Z,100959.12
2018-04-27T05:24:30.783Z,100958.98
2018-04-27T05:26:59.237Z,100957.88
2018-04-27T05:29:27.620Z,100956.42
2018-04-27T05:31:56.020Z,100956.83
2018-04-27T05:34:24.397Z,100949.84
2018-04-27T05:36:53.573Z,100947.29
2018-04-27T05:39:22.060Z,100951.84
2018-04-27T05:41:51.190Z,100952.11
2018-04-27T05:44:19.567Z,100951.38
2018-04-27T05:46:47.953Z,100946.48
2018-04-27T05:49:16.345Z,100948.64
2018-04-27T05:51:44.701Z,100949.00
2018-04-27T05:54:13.809Z,100938.09
2018-04-27T05:56:42.191Z,100936.61
2018-04-27T05:59:10.567Z,100933.11
2018-04-27T06:01:38.933Z,100923.19
2018-04-27T06:04:14.765Z,100923.25
2018-04-27T06:06:43.921Z,100921.30
2018-04-27T06:09:12.278Z,100923.73
2018-04-27T06:11:40.650Z,100918.77
2018-04-27T06:14:09.034Z,100921.01
2018-04-27T06:16:37.424Z,100921.83
2018-04-27T06:19:05.831Z,100914.48
2018-04-27T06:21:34.209Z,100915.37
2018-04-27T06:24:02.590Z,100916.05
2018-04-27T06:26:30.973Z,100906.86
2018-04-27T06:28:59.393Z,100912.27
2018-04-27T06:31:27.880Z,100902.09
2018-04-27T06:33:56.338Z,100898.43
2018-04-27T06:36:24.711Z,100898.12
2018-04-27T06:38:53.094Z,100889.73
2018-04-27T06:41:21.517Z,100888.36
2018-04-27T06:43:49.914Z,100887.25
2018-04-27T06:46:18.290Z,100882.60
2018-04-27T06:48:46.702Z,100888.17
2018-04-27T06:51:17.861Z,100883.25
2018-04-27T06:53:46.278Z,100877.32
2018-04-27T06:56:14.638Z,100872.72
2018-04-27T06:58:43.022Z,100877.62
2018-04-27T07:01:11.430Z,100880.53
2018-04-27T07:03:40.724Z,100874.58
2018-04-27T07:06:09.120Z,100874.61
2018-04-27T07:08:37.480Z,100864.00
2018-04-27T07:11:05.886Z,100862.80
2018-04-27T07:13:34.265Z,100860.22
2018-04-27T07:16:03.848Z,100858.41
2018-04-27T07:18:32.234Z,100844.11
2018-04-27T07:21:00.618Z,100843.25
2018-04-27T07:23:28.989Z,100841.50
2018-04-27T07:25:57.444Z,100840.28
2018-04-27T07:28:25.849Z,100830.19
2018-04-27T07:30:54.219Z,100832.85
2018-04-27T07:33:23.419Z,100832.36
2018-04-27T07:35:52.570Z,100839.40
2018-04-27T07:38:21.025Z,100845.84
2018-04-27T07:40:49.391Z,100840.28
2018-04-27T07:43:18.521Z,100831.11
2018-04-27T07:45:46.878Z,100827.88
2018-04-27T07:48:16.049Z,100823.59
2018-04-27T07:50:44.509Z,100821.80
2018-04-27T07:53:12.961Z,100819.45
2018-04-27T07:55:41.338Z,100809.09
2018-04-27T07:58:09.700Z,100810.00
2018-04-27T08:00:38.864Z,100809.17
2018-04-27T08:03:07.990Z,100801.15
2018-04-27T08:05:36.354Z,100807.27
2018-04-27T08:08:04.709Z,100801.61
2018-04-27T08:10:33.068Z,100800.88
2018-04-27T08:13:01.418Z,100802.84
2018-04-27T08:15:29.789Z,100803.36
2018-04-27T08:17:58.950Z,100803.56
2018-04-27T08:20:28.905Z,100792.42
2018-04-27T08:22:58.983Z,100795.70
2018-04-27T08:25:29.980Z,100798.97
2018-04-27T08:27:58.344Z,100798.42
2018-04-27T08:30:26.716Z,100796.52
2018-04-27T08:32:55.861Z,100788.11
2018-04-27T08:35:25.002Z,100786.98
2018-04-27T08:37:53.405Z,100785.67
2018-04-27T08:40:21.780Z,100785.64
2018-04-27T08:42:50.171Z,100778.50
2018-04-27T08:45:18.574Z,100778.07
2018-04-27T08:47:47.063Z,100774.88
2018-04-27T08:50:15.507Z,100777.74
2018-04-27T08:52:43.805Z,100779.67
2018-04-27T08:55:12.205Z,100764.79
2018-04-27T08:57:40.642Z,100769.75
2018-04-27T09:00:09.023Z,100770.23
2018-04-27T09:02:37.401Z,100760.67
2018-04-27T09:05:05.765Z,100753.04
2018-04-27T09:07:34.926Z,100748.77
2018-04-27T09:10:03.338Z,100747.29
2018-04-27T09:12:31.862Z,100747.42
2018-04-27T09:15:00.254Z,100736.60
2018-04-27T09:17:28.623Z,100729.75
2018-04-27T09:19:57.032Z,100728.86
2018-04-27T09:22:25.435Z,100728.67
2018-04-27T09:24:53.820Z,100723.76
2018-04-27T09:27:22.259Z,100731.67
2018-04-27T09:29:50.634Z,100724.52
2018-04-27T09:32:19.048Z,100730.45
2018-04-27T09:34:47.468Z,100719.65
2018-04-27T09:37:15.875Z,100717.27
2018-04-27T09:39:45.041Z,100704.47
2018-04-27T09:42:13.502Z,100694.95
2018-04-27T09:44:41.891Z,100692.73
2018-04-27T09:47:10.302Z,100694.60
2018-04-27T09:49:39.453Z,100692.91
2018-04-27T09:52:07.833Z,100684.01
2018-04-27T09:54:36.234Z,100676.80
2018-04-27T09:57:04.628Z,100675.48
2018-04-27T09:59:33.002Z,100674.46
2018-04-27T10:02:01.391Z,100663.26
2018-04-27T10:04:29.752Z,100652.86
2018-04-27T10:06:58.156Z,100651.44
2018-04-27T10:09:26.532Z,100647.36
2018-04-27T10:11:54.934Z,100642.34
2018-04-27T10:14:24.133Z,100639.91
2018-04-27T10:16:53.289Z,100633.36
2018-04-27T10:19:21.693Z,100626.98
2018-04-27T10:21:50.071Z,100615.33
2018-04-27T10:24:18.473Z,100610.16
2018-04-27T10:26:46.832Z,100609.22
2018-04-27T10:29:15.265Z,100609.09
2018-04-27T10:31:43.658Z,100607.45
2018-04-27T10:34:12.042Z,100610.71
2018-04-27T10:36:40.417Z,100607.98
2018-04-27T10:39:08.805Z,100609.91
2018-04-27T10:41:37.205Z,100610.80
2018-04-27T10:44:06.345Z,100607.59
2018-04-27T10:46:34.707Z,100601.00
2018-04-27T10:49:03.073Z,100603.88
2018-04-27T10:51:32.190Z,100596.39
2018-04-27T10:54:00.571Z,100587.95
2018-04-27T10:56:28.977Z,100572.80
2018-04-27T10:58:57.354Z,100575.52
2018-04-27T11:01:25.769Z,100569.45
2018-04-27T11:03:54.115Z,100555.34
2018-04-27T11:06:22.480Z,100549.99
2018-04-27T11:08:50.845Z,100555.80
2018-04-27T11:11:19.992Z,100556.55
2018-04-27T11:13:48.426Z,100548.02
2018-04-27T11:16:18.087Z,100545.59
2018-04-27T11:18:46.317Z,100551.12
2018-04-27T11:21:14.691Z,100540.38
2018-04-27T11:23:43.073Z,100534.77
2018-04-27T11:26:11.431Z,100537.64
2018-04-27T11:28:39.963Z,100538.29
2018-04-27T11:31:08.535Z,100535.73
2018-04-27T11:33:36.918Z,100533.02
2018-04-27T11:36:05.306Z,100529.02
2018-04-27T11:38:33.688Z,100520.34
2018-04-27T11:41:02.065Z,100511.05
2018-04-27T11:43:30.478Z,100502.00
2018-04-27T11:45:58.835Z,100498.34
2018-04-27T11:48:27.973Z,100490.94
2018-04-27T11:50:56.371Z,100492.83
2018-04-27T11:53:24.769Z,100488.60
2018-04-27T11:55:53.167Z,100476.02
2018-04-27T11:58:23.275Z,100479.05
2018-04-27T12:00:52.572Z,100467.53
2018-04-27T12:03:20.975Z,100460.91
2018-04-27T12:05:49.601Z,100447.08
2018-04-27T12:08:18.000Z,100430.45
2018-04-27T12:10:46.386Z,100410.10
2018-04-27T12:13:15.533Z,100419.56
2018-04-27T12:15:43.926Z,100424.41
2018-04-27T12:18:12.354Z,100412.23
2018-04-27T12:20:40.751Z,100406.83
2018-04-27T12:23:09.143Z,100413.80
2018-04-27T12:25:37.531Z,100404.75
2018-04-27T12:28:06.059Z,100392.03
2018-04-27T12:30:34.459Z,100397.23
2018-04-27T12:33:03.617Z,100391.13
2018-04-27T12:35:32.018Z,100385.05
2018-04-27T12:38:00.392Z,100391.20
2018-04-27T12:40:28.750Z,100383.86
2018-04-27T12:42:57.114Z,100379.95
2018-04-27T12:45:25.501Z,100365.25
2018-04-27T12:47:53.989Z,100346.99
2018-04-27T12:50:22.399Z,100341.02
2018-04-27T12:52:50.773Z,100330.69
2018-04-27T12:55:19.225Z,100328.84
2018-04-27T12:57:47.619Z,100323.76
2018-04-27T13:00:16.017Z,100300.80
2018-04-27T13:02:44.386Z,100300.27
2018-04-27T13:05:12.845Z,100305.39
2018-04-27T13:07:41.218Z,100313.33
2018-04-27T13:10:10.383Z,100309.59
2018-04-27T13:12:38.741Z,100307.48
2018-04-27T13:15:07.107Z,100295.03
2018-04-27T13:17:35.498Z,100298.37
2018-04-27T13:20:03.882Z,100305.09
2018-04-27T13:22:32.354Z,100304.84
2018-04-27T13:25:00.750Z,100295.11
2018-04-27T13:27:29.977Z,100295.70
2018-04-27T13:29:58.340Z,100291.55
2018-04-27T13:32:26.710Z,100289.93
2018-04-27T13:34:55.534Z,100291.67
2018-04-27T13:37:23.901Z,100296.21
2018-04-27T13:39:52.305Z,100296.27
2018-04-27T13:42:20.732Z,100289.97
2018-04-27T13:44:49.899Z,100273.31
2018-04-27T13:47:18.300Z,100282.97
2018-04-27T13:49:46.725Z,100277.26
2018-04-27T13:52:15.114Z,100284.48
2018-04-27T13:54:43.515Z,100286.91
2018-04-27T13:57:11.979Z,100278.64
2018-04-27T13:59:40.392Z,100279.75
2018-04-27T14:02:08.750Z,100285.03
2018-04-27T14:04:37.157Z,100274.15
2018-04-27T14:07:06.341Z,100278.70
2018-04-27T14:09:34.773Z,100260.64
2018-04-27T14:12:03.185Z,100257.41
2018-04-27T14:14:31.575Z,100246.86
2018-04-27T14:17:00.008Z,100234.49
2018-04-27T14:19:28.383Z,100224.28
2018-04-27T14:21:56.789Z,100211.05
2018-04-27T14:24:25.227Z,100210.20
2018-04-27T14:26:54.394Z,100199.22
2018-04-27T14:29:22.765Z,100191.27
2018-04-27T14:31:51.178Z,100189.78
2018-04-27T14:34:19.815Z,100186.79
2018-04-27T14:36:48.225Z,100185.56
2018-04-27T14:39:17.440Z,100177.82
2018-04-27T14:41:46.605Z,100172.55
2018-04-27T14:44:14.988Z,100159.44
2018-04-27T14:46:43.357Z,100155.52
2018-04-27T14:49:11.758Z,100164.05
2018-04-27T14:51:40.143Z,100160.11
2018-04-27T14:54:08.538Z,100150.62
2018-04-27T14:56:36.929Z,100145.77
2018-04-27T14:59:06.103Z,100160.48
2018-04-27T15:01:34.515Z,100161.48
2018-04-27T15:04:03.687Z,100163.00
2018-04-27T15:06:32.081Z,100156.41
2018-04-27T15:09:01.537Z,100152.78
2018-04-27T15:11:29.917Z,100160.89
2018-04-27T15:13:58.283Z,100163.07
2018-04-27T15:16:27.457Z,100154.80
2018-04-27T15:18:55.878Z,100144.34
2018-04-27T15:21:24.270Z,100152.41
2018-04-27T15:23:52.649Z,100148.61
2018-04-27T15:26:21.065Z,100154.77
2018-04-27T15:28:49.454Z,100152.17
2018-04-27T15:31:17.879Z,100149.50
2018-04-27T15:33:47.109Z,100150.85
2018-04-27T15:36:15.398Z,100136.26
2018-04-27T15:38:43.763Z,100140.87
2018-04-27T15:41:12.140Z,100148.31
2018-04-27T15:43:40.508Z,100141.58
2018-04-27T15:46:09.656Z,100134.46
2018-04-27T15:48:38.084Z,100141.73
2018-04-27T15:51:06.622Z,100129.32
2018-04-27T15:53:34.999Z,100127.82
2018-04-27T15:56:03.440Z,100131.19
2018-04-27T15:58:32.593Z,100120.50
2018-04-27T16:01:00.981Z,100112.98
2018-04-27T16:03:29.341Z,100116.73
2018-04-27T16:05:57.721Z,100118.03
2018-04-27T16:08:26.270Z,100115.56
2018-04-27T16:10:54.673Z,100118.95
2018-04-27T16:16:19.174Z,100113.34
2018-04-27T16:18:48.302Z,100111.20
2018-04-27T16:21:16.737Z,100102.12
2018-04-27T16:23:46.969Z,100113.81
2018-04-27T16:26:17.826Z,100110.07
2018-04-27T16:28:46.992Z,100115.20
2018-04-27T16:31:16.113Z,100118.14
2018-04-27T16:33:45.287Z,100118.66
2018-04-27T16:36:13.702Z,100106.09
2018-04-27T16:38:42.830Z,100108.94
2018-04-27T16:41:11.243Z,100109.41
2018-04-27T16:43:39.656Z,100098.89
2018-04-27T16:46:08.087Z,100099.54
2018-04-27T16:48:36.444Z,100099.03
2018-04-27T16:51:04.821Z,100096.27
2018-04-27T16:53:34.008Z,100089.59
2018-04-27T16:56:02.467Z,100089.30
2018-04-27T16:58:31.605Z,100094.59
2018-04-27T17:01:00.767Z,100093.47
2018-04-27T17:03:29.146Z,100095.73
2018-04-27T17:05:58.310Z,100099.23
2018-04-27T17:08:26.723Z,100093.63
2018-04-27T17:10:55.873Z,100094.13
2018-04-27T17:13:25.011Z,100089.54
2018-04-27T17:15:53.385Z,100090.86
2018-04-27T17:18:21.766Z,100095.17
2018-04-27T17:20:50.185Z,100089.69
2018-04-27T17:23:18.592Z,100088.65
2018-04-27T17:25:46.983Z,100089.41
2018-04-27T17:28:15.355Z,100080.38
2018-04-27T17:30:43.768Z,100083.06
2018-04-27T17:33:13.625Z,100087.41
2018-04-27T17:35:42.050Z,100084.11
2018-04-27T17:38:11.232Z,100081.77
2018-04-27T17:40:39.630Z,100083.34
2018-04-27T17:43:08.014Z,100083.53
2018-04-27T17:45:36.466Z,100079.41
2018-04-27T17:48:04.924Z,100079.58
2018-04-27T17:50:33.286Z,100081.80
2018-04-27T17:53:02.569Z,100078.59
2018-04-27T17:55:30.942Z,100075.09
2018-04-27T17:57:59.336Z,100076.20
2018-04-27T18:00:27.762Z,100073.08
2018-04-27T18:02:56.277Z,100081.55
2018-04-27T18:05:24.677Z,100085.89
2018-04-27T18:07:53.057Z,100083.93
2018-04-27T18:10:21.436Z,100090.81
2018-04-27T18:12:49.816Z,100093.18
2018-04-27T18:15:18.234Z,100100.78
2018-04-27T18:17:47.444Z,100094.52
2018-04-27T18:20:16.642Z,100102.22
2018-04-27T18:22:45.786Z,100097.65
2018-04-27T18:25:14.156Z,100106.58
2018-04-27T18:27:42.562Z,100102.80
2018-04-27T18:30:10.900Z,100109.33
2018-04-27T18:32:39.389Z,100103.08
2018-04-27T18:35:07.778Z,100105.70
2018-04-27T18:37:36.187Z,100104.81
2018-04-27T18:40:04.853Z,100107.72
2018-04-27T18:42:33.338Z,100114.77
2018-04-27T18:45:01.663Z,100117.19
2018-04-27T18:47:30.818Z,100110.64
2018-04-27T18:49:59.199Z,100120.66
2018-04-27T18:52:28.498Z,100113.44
2018-04-27T18:54:57.028Z,100110.91
2018-04-27T18:57:25.906Z,100107.70
2018-04-27T18:59:54.305Z,100112.17
2018-04-27T19:02:22.696Z,100115.77
2018-04-27T19:04:51.099Z,100116.97
2018-04-27T19:07:20.265Z,100121.66
2018-04-27T19:09:48.689Z,100119.95
2018-04-27T19:12:17.069Z,100128.30
2018-04-27T19:14:46.245Z,100118.89
2018-04-27T19:17:14.627Z,100124.39
2018-04-27T19:19:43.894Z,100129.06
2018-04-27T19:22:13.222Z,100132.44
2018-04-27T19:24:44.364Z,100131.32
2018-04-27T19:27:12.749Z,100136.25
2018-04-27T19:29:41.138Z,100134.19
2018-04-27T19:32:09.517Z,100133.92
2018-04-27T19:34:37.943Z,100137.58
2018-04-27T19:37:07.188Z,100138.81
2018-04-27T19:39:35.641Z,100135.45
2018-04-27T19:42:04.809Z,100137.23
2018-04-27T19:44:33.982Z,100136.55
2018-04-27T19:47:02.413Z,100130.94
2018-04-27T19:49:31.141Z,100136.47
2018-04-27T19:51:59.549Z,100137.33
2018-04-27T19:54:27.955Z,100138.53
2018-04-27T19:56:59.085Z,100135.86
2018-04-27T19:59:27.499Z,100135.02
2018-04-27T20:01:55.971Z,100133.89
2018-04-27T20:04:24.568Z,100131.84
2018-04-27T20:06:52.952Z,100137.63
2018-04-27T20:09:21.365Z,100130.61
2018-04-27T20:11:50.650Z,100134.30
2018-04-27T20:14:43.757Z,100138.63
2018-04-27T20:17:12.901Z,100134.40
2018-04-27T20:19:42.194Z,100140.59
2018-04-27T20:22:21.708Z,100140.84
2018-04-27T20:24:50.069Z,100139.53
2018-04-27T20:27:19.333Z,100139.73
2018-04-27T20:29:48.764Z,100138.17
2018-04-27T20:32:17.202Z,100144.30
2018-04-27T20:34:45.607Z,100146.17
2018-04-27T20:37:14.900Z,100143.76
2018-04-27T20:39:43.227Z,100152.96
2018-04-27T20:42:11.649Z,100156.94
2018-04-27T20:44:40.038Z,100156.86
2018-04-27T20:47:09.351Z,100162.63
2018-04-27T20:49:37.768Z,100164.95
2018-04-27T20:52:06.153Z,100164.89
2018-04-27T20:54:36.115Z,100166.44
2018-04-27T20:57:05.299Z,100168.45
2018-04-27T20:59:33.694Z,100168.73
2018-04-27T21:02:02.254Z,100167.98
2018-04-27T21:04:30.628Z,100170.62
2018-04-27T21:07:00.757Z,100163.52
2018-04-27T21:09:29.146Z,100171.70
2018-04-27T21:11:57.525Z,100159.08
2018-04-27T21:14:26.259Z,100164.98
2018-04-27T21:16:54.637Z,100170.30
2018-04-27T21:19:22.999Z,100168.48
2018-04-27T21:21:51.367Z,100173.97
2018-04-27T21:24:19.769Z,100165.13
2018-04-27T21:26:48.162Z,100175.28
2018-04-27T21:29:19.163Z,100172.59
2018-04-27T21:31:47.546Z,100176.59
2018-04-27T21:34:15.933Z,100175.25
2018-04-27T21:36:50.707Z,100178.72
2018-04-27T21:39:33.433Z,100179.23
2018-04-27T21:42:13.143Z,100182.20
2018-04-27T21:44:43.388Z,100185.68
2018-04-27T21:50:18.915Z,100202.73
2018-04-27T21:52:50.418Z,100202.41
2018-04-27T21:55:19.596Z,100205.00
2018-04-27T21:57:51.358Z,100206.91
2018-04-27T22:00:23.593Z,100209.25
2018-04-27T22:06:01.185Z,100209.19
2018-04-27T22:08:53.802Z,100213.99
2018-04-27T22:11:31.375Z,100217.86
2018-04-27T22:13:59.766Z,100220.64
2018-04-27T22:16:41.551Z,100224.93
2018-04-27T22:19:14.660Z,100221.02
2018-04-27T22:21:43.052Z,100219.11
2018-04-27T22:24:12.856Z,100220.58
2018-04-27T22:26:41.830Z,100224.70
2018-04-27T22:29:37.362Z,100225.66
2018-04-27T22:32:06.487Z,100227.52
2018-04-27T22:34:45.714Z,100231.90
2018-04-27T22:37:14.128Z,100233.73
2018-04-27T22:40:12.822Z,100228.39
2018-04-27T22:42:45.509Z,100229.72
2018-04-27T22:45:18.125Z,100236.68
2018-04-27T22:51:23.395Z,100232.69
2018-04-27T22:53:53.274Z,100237.13
2018-04-27T22:56:54.014Z,100233.63
2018-04-27T22:59:33.099Z,100226.36
2018-04-27T23:05:03.244Z,100235.82
2018-04-27T23:10:29.626Z,100234.55
2018-04-27T23:13:07.872Z,100239.43
2018-04-27T23:15:45.792Z,100241.13
2018-04-27T23:18:15.709Z,100243.23
2018-04-27T23:20:47.844Z,100240.62
2018-04-27T23:23:16.357Z,100240.66
2018-04-27T23:25:48.457Z,100242.92
2018-04-27T23:28:17.534Z,100239.86
2018-04-27T23:30:48.679Z,100242.88
2018-04-27T23:33:17.054Z,100244.64
2018-04-27T23:35:53.901Z,100246.80
2018-04-27T23:38:23.704Z,100244.64
2018-04-27T23:40:57.289Z,100240.35
2018-04-27T23:43:26.449Z,100238.20
2018-04-27T23:45:54.838Z,100245.48
2018-04-27T23:48:23.207Z,100245.53
2018-04-27T23:50:54.349Z,100250.34
2018-04-27T23:53:22.880Z,100255.48
2018-04-27T23:55:51.269Z,100256.29
2018-04-27T23:58:24.010Z,100260.23
